sensor_id;sensor_type;location;lat;lon;timestamp;P1;durP1;ratioP1;P2;durP2;ratioP2
82479;SDS011;72105;46.112;12.902;2023-11-19T00:00:46;3.67;;;2.15;;
82479;SDS011;72105;46.112;12.902;2023-11-19T00:03:13;4.60;;;2.40;;
82479;SDS011;72105;46.112;12.902;2023-11-19T00:05:39;4.78;;;3.15;;
82479;SDS011;72105;46.112;12.902;2023-11-19T00:08:06;3.28;;;1.90;;
82479;SDS011;72105;46.112;12.902;2023-11-19T00:10:33;4.53;;;2.28;;
82479;SDS011;72105;46.112;12.902;2023-11-19T00:13:00;1.95;;;1.52;;
82479;SDS011;72105;46.112;12.902;2023-11-19T00:15:27;5.72;;;2.88;;
82479;SDS011;72105;46.112;12.902;2023-11-19T00:17:54;6.22;;;2.80;;
82479;SDS011;72105;46.112;12.902;2023-11-19T00:20:20;3.58;;;2.30;;
82479;SDS011;72105;46.112;12.902;2023-11-19T00:22:49;3.38;;;2.00;;
82479;SDS011;72105;46.112;12.902;2023-11-19T00:25:18;6.00;;;2.28;;
82479;SDS011;72105;46.112;12.902;2023-11-19T00:27:45;4.38;;;2.40;;
82479;SDS011;72105;46.112;12.902;2023-11-19T00:30:11;4.32;;;2.42;;
82479;SDS011;72105;46.112;12.902;2023-11-19T00:32:37;3.65;;;2.10;;
82479;SDS011;72105;46.112;12.902;2023-11-19T00:35:07;3.40;;;1.80;;
82479;SDS011;72105;46.112;12.902;2023-11-19T00:37:35;5.75;;;2.45;;
82479;SDS011;72105;46.112;12.902;2023-11-19T00:40:01;4.82;;;2.17;;
82479;SDS011;72105;46.112;12.902;2023-11-19T00:42:30;4.28;;;2.17;;
82479;SDS011;72105;46.112;12.902;2023-11-19T00:44:56;4.57;;;2.42;;
82479;SDS011;72105;46.112;12.902;2023-11-19T00:47:23;4.43;;;2.42;;
82479;SDS011;72105;46.112;12.902;2023-11-19T00:49:49;2.38;;;1.55;;
82479;SDS011;72105;46.112;12.902;2023-11-19T00:52:15;6.22;;;2.42;;
82479;SDS011;72105;46.112;12.902;2023-11-19T00:54:42;4.03;;;2.30;;
82479;SDS011;72105;46.112;12.902;2023-11-19T00:57:08;13.10;;;4.93;;
82479;SDS011;72105;46.112;12.902;2023-11-19T00:59:34;10.13;;;4.47;;
82479;SDS011;72105;46.112;12.902;2023-11-19T01:02:00;4.40;;;1.55;;
82479;SDS011;72105;46.112;12.902;2023-11-19T01:04:37;2.17;;;1.38;;
82479;SDS011;72105;46.112;12.902;2023-11-19T01:07:03;3.63;;;1.88;;
82479;SDS011;72105;46.112;12.902;2023-11-19T01:09:32;1.80;;;1.30;;
82479;SDS011;72105;46.112;12.902;2023-11-19T01:12:01;3.80;;;1.90;;
82479;SDS011;72105;46.112;12.902;2023-11-19T01:14:28;3.88;;;2.15;;
82479;SDS011;72105;46.112;12.902;2023-11-19T01:16:54;3.15;;;1.40;;
82479;SDS011;72105;46.112;12.902;2023-11-19T01:19:23;3.10;;;1.70;;
82479;SDS011;72105;46.112;12.902;2023-11-19T01:21:50;2.65;;;1.25;;
82479;SDS011;72105;46.112;12.902;2023-11-19T01:24:16;2.50;;;1.50;;
82479;SDS011;72105;46.112;12.902;2023-11-19T01:26:43;2.05;;;1.30;;
82479;SDS011;72105;46.112;12.902;2023-11-19T01:29:12;1.83;;;1.00;;
82479;SDS011;72105;46.112;12.902;2023-11-19T01:31:39;2.90;;;1.20;;
82479;SDS011;72105;46.112;12.902;2023-11-19T01:34:05;3.08;;;1.55;;
82479;SDS011;72105;46.112;12.902;2023-11-19T01:36:32;3.17;;;2.00;;
82479;SDS011;72105;46.112;12.902;2023-11-19T01:38:58;2.03;;;1.30;;
82479;SDS011;72105;46.112;12.902;2023-11-19T01:41:24;4.65;;;1.67;;
82479;SDS011;72105;46.112;12.902;2023-11-19T01:43:50;2.92;;;1.40;;
82479;SDS011;72105;46.112;12.902;2023-11-19T01:46:16;3.10;;;1.35;;
82479;SDS011;72105;46.112;12.902;2023-11-19T01:48:43;2.92;;;1.88;;
82479;SDS011;72105;46.112;12.902;2023-11-19T01:51:10;4.82;;;2.10;;
82479;SDS011;72105;46.112;12.902;2023-11-19T01:53:37;2.75;;;1.48;;
82479;SDS011;72105;46.112;12.902;2023-11-19T01:56:04;2.30;;;1.25;;
82479;SDS011;72105;46.112;12.902;2023-11-19T01:58:34;3.55;;;2.10;;
82479;SDS011;72105;46.112;12.902;2023-11-19T02:01:00;5.13;;;2.35;;
82479;SDS011;72105;46.112;12.902;2023-11-19T02:03:29;3.22;;;1.83;;
82479;SDS011;72105;46.112;12.902;2023-11-19T02:05:57;3.03;;;1.60;;
82479;SDS011;72105;46.112;12.902;2023-11-19T02:08:24;3.22;;;1.40;;
82479;SDS011;72105;46.112;12.902;2023-11-19T02:10:51;1.27;;;0.73;;
82479;SDS011;72105;46.112;12.902;2023-11-19T02:13:17;1.05;;;0.80;;
82479;SDS011;72105;46.112;12.902;2023-11-19T02:15:44;2.00;;;1.15;;
82479;SDS011;72105;46.112;12.902;2023-11-19T02:18:25;1.92;;;1.00;;
82479;SDS011;72105;46.112;12.902;2023-11-19T02:20:55;1.02;;;0.80;;
82479;SDS011;72105;46.112;12.902;2023-11-19T02:23:22;2.60;;;1.17;;
82479;SDS011;72105;46.112;12.902;2023-11-19T02:28:17;1.08;;;0.90;;
82479;SDS011;72105;46.112;12.902;2023-11-19T02:30:43;1.77;;;0.98;;
82479;SDS011;72105;46.112;12.902;2023-11-19T02:33:09;2.85;;;0.90;;
82479;SDS011;72105;46.112;12.902;2023-11-19T02:35:35;1.05;;;0.90;;
82479;SDS011;72105;46.112;12.902;2023-11-19T02:38:02;1.27;;;0.90;;
82479;SDS011;72105;46.112;12.902;2023-11-19T02:40:31;0.80;;;0.60;;
82479;SDS011;72105;46.112;12.902;2023-11-19T02:42:58;1.02;;;0.80;;
82479;SDS011;72105;46.112;12.902;2023-11-19T02:45:24;1.17;;;0.77;;
82479;SDS011;72105;46.112;12.902;2023-11-19T02:47:51;0.82;;;0.73;;
82479;SDS011;72105;46.112;12.902;2023-11-19T02:50:18;1.23;;;0.65;;
82479;SDS011;72105;46.112;12.902;2023-11-19T02:52:50;0.88;;;0.88;;
82479;SDS011;72105;46.112;12.902;2023-11-19T02:55:16;0.77;;;0.60;;
82479;SDS011;72105;46.112;12.902;2023-11-19T02:57:43;1.23;;;0.60;;
82479;SDS011;72105;46.112;12.902;2023-11-19T03:00:16;0.60;;;0.60;;
82479;SDS011;72105;46.112;12.902;2023-11-19T03:02:42;0.50;;;0.50;;
82479;SDS011;72105;46.112;12.902;2023-11-19T03:05:15;1.15;;;0.60;;
82479;SDS011;72105;46.112;12.902;2023-11-19T03:07:42;0.85;;;0.80;;
82479;SDS011;72105;46.112;12.902;2023-11-19T03:10:11;0.98;;;0.70;;
82479;SDS011;72105;46.112;12.902;2023-11-19T03:12:39;0.52;;;0.50;;
82479;SDS011;72105;46.112;12.902;2023-11-19T03:15:05;1.05;;;0.70;;
82479;SDS011;72105;46.112;12.902;2023-11-19T03:17:32;0.80;;;0.65;;
82479;SDS011;72105;46.112;12.902;2023-11-19T03:19:59;1.98;;;1.00;;
82479;SDS011;72105;46.112;12.902;2023-11-19T03:22:26;0.80;;;0.80;;
82479;SDS011;72105;46.112;12.902;2023-11-19T03:24:52;1.10;;;1.00;;
82479;SDS011;72105;46.112;12.902;2023-11-19T03:27:18;1.38;;;0.80;;
82479;SDS011;72105;46.112;12.902;2023-11-19T03:29:44;1.00;;;0.73;;
82479;SDS011;72105;46.112;12.902;2023-11-19T03:32:10;1.30;;;0.98;;
82479;SDS011;72105;46.112;12.902;2023-11-19T03:34:37;1.42;;;1.00;;
82479;SDS011;72105;46.112;12.902;2023-11-19T03:37:03;1.00;;;0.88;;
82479;SDS011;72105;46.112;12.902;2023-11-19T03:39:29;1.80;;;0.80;;
82479;SDS011;72105;46.112;12.902;2023-11-19T03:41:55;1.00;;;0.80;;
82479;SDS011;72105;46.112;12.902;2023-11-19T03:44:21;1.02;;;0.90;;
82479;SDS011;72105;46.112;12.902;2023-11-19T03:46:47;1.70;;;1.02;;
82479;SDS011;72105;46.112;12.902;2023-11-19T03:49:14;0.80;;;0.80;;
82479;SDS011;72105;46.112;12.902;2023-11-19T03:51:40;2.17;;;1.00;;
82479;SDS011;72105;46.112;12.902;2023-11-19T03:54:06;1.23;;;0.88;;
82479;SDS011;72105;46.112;12.902;2023-11-19T03:56:32;0.80;;;0.80;;
82479;SDS011;72105;46.112;12.902;2023-11-19T03:58:58;1.10;;;0.75;;
82479;SDS011;72105;46.112;12.902;2023-11-19T04:01:24;1.27;;;0.82;;
82479;SDS011;72105;46.112;12.902;2023-11-19T04:03:50;1.38;;;1.08;;
82479;SDS011;72105;46.112;12.902;2023-11-19T04:06:17;1.60;;;1.10;;
82479;SDS011;72105;46.112;12.902;2023-11-19T04:08:43;2.45;;;0.90;;
82479;SDS011;72105;46.112;12.902;2023-11-19T04:11:09;0.98;;;0.80;;
82479;SDS011;72105;46.112;12.902;2023-11-19T04:13:35;1.38;;;0.98;;
82479;SDS011;72105;46.112;12.902;2023-11-19T04:16:02;1.75;;;0.70;;
82479;SDS011;72105;46.112;12.902;2023-11-19T04:18:28;0.77;;;0.75;;
82479;SDS011;72105;46.112;12.902;2023-11-19T04:20:54;0.70;;;0.70;;
82479;SDS011;72105;46.112;12.902;2023-11-19T04:23:21;1.98;;;1.05;;
82479;SDS011;72105;46.112;12.902;2023-11-19T04:25:47;0.82;;;0.80;;
82479;SDS011;72105;46.112;12.902;2023-11-19T04:28:13;1.25;;;0.70;;
82479;SDS011;72105;46.112;12.902;2023-11-19T04:30:39;0.82;;;0.60;;
82479;SDS011;72105;46.112;12.902;2023-11-19T04:33:05;0.77;;;0.63;;
82479;SDS011;72105;46.112;12.902;2023-11-19T04:35:31;0.75;;;0.68;;
82479;SDS011;72105;46.112;12.902;2023-11-19T04:37:58;0.98;;;0.60;;
82479;SDS011;72105;46.112;12.902;2023-11-19T04:43:09;2.50;;;0.70;;
82479;SDS011;72105;46.112;12.902;2023-11-19T04:45:35;1.00;;;0.68;;
82479;SDS011;72105;46.112;12.902;2023-11-19T04:48:02;0.63;;;0.60;;
82479;SDS011;72105;46.112;12.902;2023-11-19T04:50:28;1.85;;;0.70;;
82479;SDS011;72105;46.112;12.902;2023-11-19T04:52:54;1.55;;;0.73;;
82479;SDS011;72105;46.112;12.902;2023-11-19T04:55:20;1.20;;;0.77;;
82479;SDS011;72105;46.112;12.902;2023-11-19T04:57:47;1.20;;;0.90;;
82479;SDS011;72105;46.112;12.902;2023-11-19T05:00:13;1.10;;;0.80;;
82479;SDS011;72105;46.112;12.902;2023-11-19T05:02:39;0.82;;;0.82;;
82479;SDS011;72105;46.112;12.902;2023-11-19T05:05:05;1.02;;;0.93;;
82479;SDS011;72105;46.112;12.902;2023-11-19T05:07:32;1.27;;;0.73;;
82479;SDS011;72105;46.112;12.902;2023-11-19T05:09:58;1.88;;;0.90;;
82479;SDS011;72105;46.112;12.902;2023-11-19T05:12:25;0.80;;;0.73;;
82479;SDS011;72105;46.112;12.902;2023-11-19T05:14:51;2.05;;;1.17;;
82479;SDS011;72105;46.112;12.902;2023-11-19T05:17:17;1.67;;;0.90;;
82479;SDS011;72105;46.112;12.902;2023-11-19T05:19:44;2.08;;;1.00;;
82479;SDS011;72105;46.112;12.902;2023-11-19T05:22:10;1.77;;;1.50;;
82479;SDS011;72105;46.112;12.902;2023-11-19T05:24:36;3.25;;;1.48;;
82479;SDS011;72105;46.112;12.902;2023-11-19T05:27:02;2.00;;;0.90;;
82479;SDS011;72105;46.112;12.902;2023-11-19T05:29:28;2.03;;;1.27;;
82479;SDS011;72105;46.112;12.902;2023-11-19T05:31:54;1.15;;;0.70;;
82479;SDS011;72105;46.112;12.902;2023-11-19T05:34:21;2.78;;;1.33;;
82479;SDS011;72105;46.112;12.902;2023-11-19T05:36:47;0.95;;;0.73;;
82479;SDS011;72105;46.112;12.902;2023-11-19T05:39:13;1.10;;;1.00;;
82479;SDS011;72105;46.112;12.902;2023-11-19T05:41:39;1.17;;;1.02;;
82479;SDS011;72105;46.112;12.902;2023-11-19T05:44:05;1.40;;;1.00;;
82479;SDS011;72105;46.112;12.902;2023-11-19T05:46:31;1.25;;;1.05;;
82479;SDS011;72105;46.112;12.902;2023-11-19T05:48:58;1.33;;;1.00;;
82479;SDS011;72105;46.112;12.902;2023-11-19T05:51:24;1.30;;;0.93;;
82479;SDS011;72105;46.112;12.902;2023-11-19T05:53:50;1.40;;;1.05;;
82479;SDS011;72105;46.112;12.902;2023-11-19T05:56:16;2.85;;;1.58;;
82479;SDS011;72105;46.112;12.902;2023-11-19T05:58:46;3.83;;;2.05;;
82479;SDS011;72105;46.112;12.902;2023-11-19T06:03:40;5.43;;;2.10;;
82479;SDS011;72105;46.112;12.902;2023-11-19T06:06:08;2.92;;;1.33;;
82479;SDS011;72105;46.112;12.902;2023-11-19T06:08:35;1.95;;;1.48;;
82479;SDS011;72105;46.112;12.902;2023-11-19T06:11:02;3.40;;;2.70;;
82479;SDS011;72105;46.112;12.902;2023-11-19T06:13:28;2.95;;;1.58;;
82479;SDS011;72105;46.112;12.902;2023-11-19T06:15:55;2.65;;;2.05;;
82479;SDS011;72105;46.112;12.902;2023-11-19T06:18:21;3.45;;;1.88;;
82479;SDS011;72105;46.112;12.902;2023-11-19T06:20:48;1.83;;;1.20;;
82479;SDS011;72105;46.112;12.902;2023-11-19T06:23:14;2.47;;;1.38;;
82479;SDS011;72105;46.112;12.902;2023-11-19T06:25:41;1.70;;;1.17;;
82479;SDS011;72105;46.112;12.902;2023-11-19T06:28:07;2.53;;;1.15;;
82479;SDS011;72105;46.112;12.902;2023-11-19T06:30:33;2.53;;;1.60;;
82479;SDS011;72105;46.112;12.902;2023-11-19T06:33:01;2.15;;;1.70;;
82479;SDS011;72105;46.112;12.902;2023-11-19T06:35:28;2.30;;;1.33;;
82479;SDS011;72105;46.112;12.902;2023-11-19T06:38:01;2.22;;;1.48;;
82479;SDS011;72105;46.112;12.902;2023-11-19T06:40:27;2.95;;;1.30;;
82479;SDS011;72105;46.112;12.902;2023-11-19T06:42:54;1.77;;;0.95;;
82479;SDS011;72105;46.112;12.902;2023-11-19T06:45:21;2.42;;;1.48;;
82479;SDS011;72105;46.112;12.902;2023-11-19T06:47:47;1.70;;;1.60;;
82479;SDS011;72105;46.112;12.902;2023-11-19T06:50:13;4.75;;;1.80;;
82479;SDS011;72105;46.112;12.902;2023-11-19T06:52:40;3.58;;;1.50;;
82479;SDS011;72105;46.112;12.902;2023-11-19T06:55:06;2.00;;;1.25;;
82479;SDS011;72105;46.112;12.902;2023-11-19T06:57:32;1.88;;;1.00;;
82479;SDS011;72105;46.112;12.902;2023-11-19T06:59:59;1.60;;;1.15;;
82479;SDS011;72105;46.112;12.902;2023-11-19T07:02:25;1.75;;;0.93;;
82479;SDS011;72105;46.112;12.902;2023-11-19T07:04:51;1.85;;;1.10;;
82479;SDS011;72105;46.112;12.902;2023-11-19T07:07:17;1.33;;;1.05;;
82479;SDS011;72105;46.112;12.902;2023-11-19T07:09:43;1.90;;;1.08;;
82479;SDS011;72105;46.112;12.902;2023-11-19T07:12:10;1.10;;;0.93;;
82479;SDS011;72105;46.112;12.902;2023-11-19T07:14:36;4.22;;;1.38;;
82479;SDS011;72105;46.112;12.902;2023-11-19T07:17:02;3.55;;;1.20;;
82479;SDS011;72105;46.112;12.902;2023-11-19T07:19:28;2.03;;;1.10;;
82479;SDS011;72105;46.112;12.902;2023-11-19T07:21:54;1.92;;;1.13;;
82479;SDS011;72105;46.112;12.902;2023-11-19T07:24:21;1.20;;;0.93;;
82479;SDS011;72105;46.112;12.902;2023-11-19T07:26:47;1.80;;;1.08;;
82479;SDS011;72105;46.112;12.902;2023-11-19T07:29:14;2.50;;;1.00;;
82479;SDS011;72105;46.112;12.902;2023-11-19T07:31:43;1.45;;;0.90;;
82479;SDS011;72105;46.112;12.902;2023-11-19T07:34:13;1.55;;;1.23;;
82479;SDS011;72105;46.112;12.902;2023-11-19T07:36:39;3.03;;;2.13;;
82479;SDS011;72105;46.112;12.902;2023-11-19T07:39:06;4.82;;;3.25;;
82479;SDS011;72105;46.112;12.902;2023-11-19T07:41:33;1.98;;;1.40;;
82479;SDS011;72105;46.112;12.902;2023-11-19T07:44:00;3.38;;;1.55;;
82479;SDS011;72105;46.112;12.902;2023-11-19T07:46:26;2.95;;;1.92;;
82479;SDS011;72105;46.112;12.902;2023-11-19T07:48:52;2.85;;;1.85;;
82479;SDS011;72105;46.112;12.902;2023-11-19T07:51:18;1.48;;;1.38;;
82479;SDS011;72105;46.112;12.902;2023-11-19T07:53:44;2.08;;;1.80;;
82479;SDS011;72105;46.112;12.902;2023-11-19T07:56:10;2.45;;;1.65;;
82479;SDS011;72105;46.112;12.902;2023-11-19T07:58:36;3.25;;;1.95;;
82479;SDS011;72105;46.112;12.902;2023-11-19T08:01:03;2.85;;;1.60;;
82479;SDS011;72105;46.112;12.902;2023-11-19T08:03:29;3.10;;;1.65;;
82479;SDS011;72105;46.112;12.902;2023-11-19T08:05:55;2.20;;;1.60;;
82479;SDS011;72105;46.112;12.902;2023-11-19T08:08:24;2.35;;;1.63;;
82479;SDS011;72105;46.112;12.902;2023-11-19T08:10:51;2.90;;;1.90;;
82479;SDS011;72105;46.112;12.902;2023-11-19T08:13:18;2.58;;;1.90;;
82479;SDS011;72105;46.112;12.902;2023-11-19T08:15:45;2.20;;;1.75;;
82479;SDS011;72105;46.112;12.902;2023-11-19T08:18:12;1.58;;;1.30;;
82479;SDS011;72105;46.112;12.902;2023-11-19T08:20:38;2.45;;;1.63;;
82479;SDS011;72105;46.112;12.902;2023-11-19T08:23:04;2.92;;;1.85;;
82479;SDS011;72105;46.112;12.902;2023-11-19T08:25:30;2.40;;;1.60;;
82479;SDS011;72105;46.112;12.902;2023-11-19T08:27:58;4.07;;;1.80;;
82479;SDS011;72105;46.112;12.902;2023-11-19T08:30:25;1.35;;;1.10;;
82479;SDS011;72105;46.112;12.902;2023-11-19T08:32:52;1.67;;;1.42;;
82479;SDS011;72105;46.112;12.902;2023-11-19T08:35:18;2.13;;;1.25;;
82479;SDS011;72105;46.112;12.902;2023-11-19T08:37:44;2.08;;;1.58;;
82479;SDS011;72105;46.112;12.902;2023-11-19T08:40:11;2.65;;;1.48;;
82479;SDS011;72105;46.112;12.902;2023-11-19T08:42:40;1.38;;;1.00;;
82479;SDS011;72105;46.112;12.902;2023-11-19T08:45:06;2.20;;;1.15;;
82479;SDS011;72105;46.112;12.902;2023-11-19T08:47:35;1.30;;;1.00;;
82479;SDS011;72105;46.112;12.902;2023-11-19T08:50:01;1.27;;;0.90;;
82479;SDS011;72105;46.112;12.902;2023-11-19T08:52:29;1.17;;;0.80;;
82479;SDS011;72105;46.112;12.902;2023-11-19T08:54:55;1.40;;;0.93;;
82479;SDS011;72105;46.112;12.902;2023-11-19T08:57:21;1.80;;;1.00;;
82479;SDS011;72105;46.112;12.902;2023-11-19T08:59:47;3.20;;;1.00;;
82479;SDS011;72105;46.112;12.902;2023-11-19T09:02:13;1.75;;;1.13;;
82479;SDS011;72105;46.112;12.902;2023-11-19T09:04:39;2.13;;;1.42;;
82479;SDS011;72105;46.112;12.902;2023-11-19T09:07:06;1.33;;;0.95;;
82479;SDS011;72105;46.112;12.902;2023-11-19T09:09:34;1.35;;;1.13;;
82479;SDS011;72105;46.112;12.902;2023-11-19T09:12:01;1.40;;;1.08;;
82479;SDS011;72105;46.112;12.902;2023-11-19T09:14:28;1.63;;;1.00;;
82479;SDS011;72105;46.112;12.902;2023-11-19T09:16:55;1.55;;;1.20;;
82479;SDS011;72105;46.112;12.902;2023-11-19T09:19:21;1.55;;;1.20;;
82479;SDS011;72105;46.112;12.902;2023-11-19T09:21:47;2.17;;;1.40;;
82479;SDS011;72105;46.112;12.902;2023-11-19T09:24:14;2.03;;;1.20;;
82479;SDS011;72105;46.112;12.902;2023-11-19T09:26:40;1.23;;;1.10;;
82479;SDS011;72105;46.112;12.902;2023-11-19T09:29:07;1.92;;;1.13;;
82479;SDS011;72105;46.112;12.902;2023-11-19T09:31:33;2.00;;;1.40;;
82479;SDS011;72105;46.112;12.902;2023-11-19T09:33:59;2.00;;;1.15;;
82479;SDS011;72105;46.112;12.902;2023-11-19T09:36:25;2.10;;;1.13;;
82479;SDS011;72105;46.112;12.902;2023-11-19T09:38:51;2.55;;;1.90;;
82479;SDS011;72105;46.112;12.902;2023-11-19T09:41:18;1.30;;;0.85;;
82479;SDS011;72105;46.112;12.902;2023-11-19T09:43:44;1.77;;;1.27;;
82479;SDS011;72105;46.112;12.902;2023-11-19T09:46:12;3.10;;;2.25;;
82479;SDS011;72105;46.112;12.902;2023-11-19T09:48:38;4.55;;;2.53;;
82479;SDS011;72105;46.112;12.902;2023-11-19T09:51:08;4.90;;;3.72;;
82479;SDS011;72105;46.112;12.902;2023-11-19T09:53:35;2.75;;;1.38;;
82479;SDS011;72105;46.112;12.902;2023-11-19T09:56:02;3.33;;;1.42;;
82479;SDS011;72105;46.112;12.902;2023-11-19T09:58:32;2.38;;;1.50;;
82479;SDS011;72105;46.112;12.902;2023-11-19T10:00:58;2.88;;;1.35;;
82479;SDS011;72105;46.112;12.902;2023-11-19T10:03:25;1.90;;;1.20;;
82479;SDS011;72105;46.112;12.902;2023-11-19T10:05:56;1.85;;;1.25;;
82479;SDS011;72105;46.112;12.902;2023-11-19T10:08:22;2.22;;;0.90;;
82479;SDS011;72105;46.112;12.902;2023-11-19T10:10:48;2.83;;;1.52;;
82479;SDS011;72105;46.112;12.902;2023-11-19T10:13:14;1.60;;;1.02;;
82479;SDS011;72105;46.112;12.902;2023-11-19T10:15:40;1.35;;;1.05;;
82479;SDS011;72105;46.112;12.902;2023-11-19T10:18:07;5.72;;;1.23;;
82479;SDS011;72105;46.112;12.902;2023-11-19T10:20:36;2.53;;;1.65;;
82479;SDS011;72105;46.112;12.902;2023-11-19T10:23:03;1.90;;;1.58;;
82479;SDS011;72105;46.112;12.902;2023-11-19T10:25:29;3.53;;;2.17;;
82479;SDS011;72105;46.112;12.902;2023-11-19T10:27:55;2.05;;;1.27;;
82479;SDS011;72105;46.112;12.902;2023-11-19T10:30:26;2.15;;;1.70;;
82479;SDS011;72105;46.112;12.902;2023-11-19T10:33:03;3.13;;;2.13;;
82479;SDS011;72105;46.112;12.902;2023-11-19T10:35:51;1.63;;;1.52;;
82479;SDS011;72105;46.112;12.902;2023-11-19T10:38:18;4.85;;;2.70;;
82479;SDS011;72105;46.112;12.902;2023-11-19T10:40:44;3.20;;;1.88;;
82479;SDS011;72105;46.112;12.902;2023-11-19T10:43:10;2.67;;;1.58;;
82479;SDS011;72105;46.112;12.902;2023-11-19T10:45:37;4.43;;;2.53;;
82479;SDS011;72105;46.112;12.902;2023-11-19T10:48:04;1.50;;;1.20;;
82479;SDS011;72105;46.112;12.902;2023-11-19T10:50:33;1.92;;;1.27;;
82479;SDS011;72105;46.112;12.902;2023-11-19T10:53:01;2.17;;;1.20;;
82479;SDS011;72105;46.112;12.902;2023-11-19T10:55:31;2.72;;;1.70;;
82479;SDS011;72105;46.112;12.902;2023-11-19T10:58:00;4.20;;;2.00;;
82479;SDS011;72105;46.112;12.902;2023-11-19T11:00:28;2.50;;;1.75;;
82479;SDS011;72105;46.112;12.902;2023-11-19T11:02:59;2.90;;;1.60;;
82479;SDS011;72105;46.112;12.902;2023-11-19T11:05:26;5.47;;;1.83;;
82479;SDS011;72105;46.112;12.902;2023-11-19T11:07:54;2.45;;;1.40;;
82479;SDS011;72105;46.112;12.902;2023-11-19T11:10:22;1.98;;;1.50;;
82479;SDS011;72105;46.112;12.902;2023-11-19T11:12:51;2.35;;;1.88;;
82479;SDS011;72105;46.112;12.902;2023-11-19T11:15:26;2.63;;;1.92;;
82479;SDS011;72105;46.112;12.902;2023-11-19T11:17:55;1.92;;;1.60;;
82479;SDS011;72105;46.112;12.902;2023-11-19T11:20:23;3.38;;;1.88;;
82479;SDS011;72105;46.112;12.902;2023-11-19T11:25:45;2.03;;;1.35;;
82479;SDS011;72105;46.112;12.902;2023-11-19T11:28:26;3.63;;;2.50;;
82479;SDS011;72105;46.112;12.902;2023-11-19T11:34:04;2.42;;;1.65;;
82479;SDS011;72105;46.112;12.902;2023-11-19T11:36:31;1.30;;;1.20;;
82479;SDS011;72105;46.112;12.902;2023-11-19T11:38:59;1.63;;;0.98;;
82479;SDS011;72105;46.112;12.902;2023-11-19T11:41:26;1.40;;;1.27;;
82479;SDS011;72105;46.112;12.902;2023-11-19T11:43:52;2.13;;;1.15;;
82479;SDS011;72105;46.112;12.902;2023-11-19T11:49:08;2.78;;;1.52;;
82479;SDS011;72105;46.112;12.902;2023-11-19T11:59:36;1.63;;;1.20;;
82479;SDS011;72105;46.112;12.902;2023-11-19T12:02:03;2.40;;;1.20;;
82479;SDS011;72105;46.112;12.902;2023-11-19T12:04:29;4.78;;;2.30;;
82479;SDS011;72105;46.112;12.902;2023-11-19T12:07:09;3.85;;;2.85;;
82479;SDS011;72105;46.112;12.902;2023-11-19T12:09:39;3.22;;;2.30;;
82479;SDS011;72105;46.112;12.902;2023-11-19T12:22:27;3.08;;;2.30;;
82479;SDS011;72105;46.112;12.902;2023-11-19T12:24:53;4.00;;;2.83;;
82479;SDS011;72105;46.112;12.902;2023-11-19T12:27:20;3.95;;;2.78;;
82479;SDS011;72105;46.112;12.902;2023-11-19T12:29:49;4.00;;;2.65;;
82479;SDS011;72105;46.112;12.902;2023-11-19T12:32:16;6.05;;;3.00;;
82479;SDS011;72105;46.112;12.902;2023-11-19T12:34:42;3.67;;;2.88;;
82479;SDS011;72105;46.112;12.902;2023-11-19T12:37:09;5.55;;;2.30;;
82479;SDS011;72105;46.112;12.902;2023-11-19T12:39:35;4.13;;;2.88;;
82479;SDS011;72105;46.112;12.902;2023-11-19T12:42:02;4.60;;;2.53;;
82479;SDS011;72105;46.112;12.902;2023-11-19T12:44:28;4.60;;;3.22;;
82479;SDS011;72105;46.112;12.902;2023-11-19T12:49:27;3.95;;;2.60;;
82479;SDS011;72105;46.112;12.902;2023-11-19T12:51:53;5.53;;;2.97;;
82479;SDS011;72105;46.112;12.902;2023-11-19T12:54:20;4.88;;;3.25;;
82479;SDS011;72105;46.112;12.902;2023-11-19T12:56:52;6.13;;;3.17;;
82479;SDS011;72105;46.112;12.902;2023-11-19T12:59:19;6.82;;;2.70;;
82479;SDS011;72105;46.112;12.902;2023-11-19T13:01:57;6.25;;;2.83;;
82479;SDS011;72105;46.112;12.902;2023-11-19T13:04:23;4.22;;;2.88;;
82479;SDS011;72105;46.112;12.902;2023-11-19T13:06:53;4.82;;;2.95;;
82479;SDS011;72105;46.112;12.902;2023-11-19T13:09:26;4.55;;;2.40;;
82479;SDS011;72105;46.112;12.902;2023-11-19T13:11:53;5.60;;;2.65;;
82479;SDS011;72105;46.112;12.902;2023-11-19T13:14:19;3.00;;;2.13;;
82479;SDS011;72105;46.112;12.902;2023-11-19T13:16:46;3.40;;;2.45;;
82479;SDS011;72105;46.112;12.902;2023-11-19T13:19:12;2.85;;;2.00;;
82479;SDS011;72105;46.112;12.902;2023-11-19T13:21:38;3.58;;;2.30;;
82479;SDS011;72105;46.112;12.902;2023-11-19T13:24:08;4.63;;;2.42;;
82479;SDS011;72105;46.112;12.902;2023-11-19T13:26:34;5.05;;;2.53;;
82479;SDS011;72105;46.112;12.902;2023-11-19T13:29:00;4.10;;;1.98;;
82479;SDS011;72105;46.112;12.902;2023-11-19T13:31:26;5.47;;;2.38;;
82479;SDS011;72105;46.112;12.902;2023-11-19T13:33:53;3.58;;;2.35;;
82479;SDS011;72105;46.112;12.902;2023-11-19T13:36:19;4.00;;;2.30;;
82479;SDS011;72105;46.112;12.902;2023-11-19T13:38:45;2.72;;;2.00;;
82479;SDS011;72105;46.112;12.902;2023-11-19T13:41:12;3.97;;;2.25;;
82479;SDS011;72105;46.112;12.902;2023-11-19T13:43:39;4.97;;;2.58;;
82479;SDS011;72105;46.112;12.902;2023-11-19T13:46:05;4.40;;;2.28;;
82479;SDS011;72105;46.112;12.902;2023-11-19T13:48:31;5.70;;;2.40;;
82479;SDS011;72105;46.112;12.902;2023-11-19T13:50:58;4.20;;;2.40;;
82479;SDS011;72105;46.112;12.902;2023-11-19T13:53:24;4.28;;;2.50;;
82479;SDS011;72105;46.112;12.902;2023-11-19T13:55:51;5.80;;;3.25;;
82479;SDS011;72105;46.112;12.902;2023-11-19T13:58:18;4.20;;;2.72;;
82479;SDS011;72105;46.112;12.902;2023-11-19T14:00:44;6.60;;;2.90;;
82479;SDS011;72105;46.112;12.902;2023-11-19T14:03:10;4.30;;;2.35;;
82479;SDS011;72105;46.112;12.902;2023-11-19T14:05:37;5.55;;;2.92;;
82479;SDS011;72105;46.112;12.902;2023-11-19T14:08:03;4.13;;;2.78;;
82479;SDS011;72105;46.112;12.902;2023-11-19T14:10:36;4.10;;;2.67;;
82479;SDS011;72105;46.112;12.902;2023-11-19T14:13:04;3.53;;;2.92;;
82479;SDS011;72105;46.112;12.902;2023-11-19T14:15:30;4.55;;;2.85;;
82479;SDS011;72105;46.112;12.902;2023-11-19T14:17:56;6.68;;;3.30;;
82479;SDS011;72105;46.112;12.902;2023-11-19T14:20:22;6.72;;;3.33;;
82479;SDS011;72105;46.112;12.902;2023-11-19T14:22:49;4.47;;;2.95;;
82479;SDS011;72105;46.112;12.902;2023-11-19T14:25:16;5.25;;;2.70;;
82479;SDS011;72105;46.112;12.902;2023-11-19T14:27:43;6.75;;;2.90;;
82479;SDS011;72105;46.112;12.902;2023-11-19T14:30:12;4.90;;;3.28;;
82479;SDS011;72105;46.112;12.902;2023-11-19T14:32:39;5.57;;;3.15;;
82479;SDS011;72105;46.112;12.902;2023-11-19T14:35:05;6.90;;;2.97;;
82479;SDS011;72105;46.112;12.902;2023-11-19T14:37:31;4.57;;;2.95;;
82479;SDS011;72105;46.112;12.902;2023-11-19T14:39:58;3.63;;;2.88;;
82479;SDS011;72105;46.112;12.902;2023-11-19T14:42:24;5.05;;;3.10;;
82479;SDS011;72105;46.112;12.902;2023-11-19T14:44:50;4.07;;;2.70;;
82479;SDS011;72105;46.112;12.902;2023-11-19T14:47:20;3.85;;;2.63;;
82479;SDS011;72105;46.112;12.902;2023-11-19T14:49:47;4.00;;;3.03;;
82479;SDS011;72105;46.112;12.902;2023-11-19T14:52:13;5.82;;;3.88;;
82479;SDS011;72105;46.112;12.902;2023-11-19T14:54:39;6.47;;;3.25;;
82479;SDS011;72105;46.112;12.902;2023-11-19T14:57:06;6.30;;;2.80;;
82479;SDS011;72105;46.112;12.902;2023-11-19T14:59:35;7.47;;;4.57;;
82479;SDS011;72105;46.112;12.902;2023-11-19T15:02:02;5.90;;;4.10;;
82479;SDS011;72105;46.112;12.902;2023-11-19T15:04:28;5.68;;;3.80;;
82479;SDS011;72105;46.112;12.902;2023-11-19T15:06:58;6.78;;;3.78;;
82479;SDS011;72105;46.112;12.902;2023-11-19T15:09:24;5.85;;;4.65;;